sensor_id;sensor_type;location;lat;lon;timestamp;temperature;humidity
5041;DHT22;2539;52.568;13.364;2023-02-26T00:02:13;-0.20;99.90
5041;DHT22;2539;52.568;13.364;2023-02-26T00:04:40;-0.20;99.90
5041;DHT22;2539;52.568;13.364;2023-02-26T00:07:06;-0.20;99.90
5041;DHT22;2539;52.568;13.364;2023-02-26T00:09:33;-0.20;99.90
5041;DHT22;2539;52.568;13.364;2023-02-26T00:12:00;-0.20;99.90
5041;DHT22;2539;52.568;13.364;2023-02-26T00:14:26;-0.20;99.90
5041;DHT22;2539;52.568;13.364;2023-02-26T00:17:08;-0.20;99.90
5041;DHT22;2539;52.568;13.364;2023-02-26T00:19:38;-0.20;99.90
5041;DHT22;2539;52.568;13.364;2023-02-26T00:22:06;-0.20;99.90
5041;DHT22;2539;52.568;13.364;2023-02-26T00:24:33;-0.20;99.90
5041;DHT22;2539;52.568;13.364;2023-02-26T00:26:59;-0.20;99.90
5041;DHT22;2539;52.568;13.364;2023-02-26T00:29:25;-0.10;99.90
5041;DHT22;2539;52.568;13.364;2023-02-26T00:31:52;-0.10;99.90
5041;DHT22;2539;52.568;13.364;2023-02-26T00:34:19;-0.10;99.90
5041;DHT22;2539;52.568;13.364;2023-02-26T00:39:55;0.00;99.90
5041;DHT22;2539;52.568;13.364;2023-02-26T00:42:24;0.00;99.90
5041;DHT22;2539;52.568;13.364;2023-02-26T00:44:51;0.00;99.90
5041;DHT22;2539;52.568;13.364;2023-02-26T00:48:14;0.10;99.90
5041;DHT22;2539;52.568;13.364;2023-02-26T00:50:29;0.10;99.90
5041;DHT22;2539;52.568;13.364;2023-02-26T00:53:16;0.10;99.90
5041;DHT22;2539;52.568;13.364;2023-02-26T00:55:45;0.10;99.90
5041;DHT22;2539;52.568;13.364;2023-02-26T00:58:11;0.20;99.90
5041;DHT22;2539;52.568;13.364;2023-02-26T01:00:37;0.20;99.90
5041;DHT22;2539;52.568;13.364;2023-02-26T01:03:04;0.20;99.90
5041;DHT22;2539;52.568;13.364;2023-02-26T01:05:31;0.20;99.90
5041;DHT22;2539;52.568;13.364;2023-02-26T01:08:26;0.20;99.90
5041;DHT22;2539;52.568;13.364;2023-02-26T01:10:55;0.20;99.90
5041;DHT22;2539;52.568;13.364;2023-02-26T01:13:22;0.20;99.90
5041;DHT22;2539;52.568;13.364;2023-02-26T01:15:53;0.30;99.90
5041;DHT22;2539;52.568;13.364;2023-02-26T01:18:43;0.30;99.90
5041;DHT22;2539;52.568;13.364;2023-02-26T01:21:17;0.30;99.90
5041;DHT22;2539;52.568;13.364;2023-02-26T01:23:46;0.20;99.90
5041;DHT22;2539;52.568;13.364;2023-02-26T01:26:25;1.40;99.90
5041;DHT22;2539;52.568;13.364;2023-02-26T01:28:52;0.30;99.90
5041;DHT22;2539;52.568;13.364;2023-02-26T01:31:37;0.30;99.90
5041;DHT22;2539;52.568;13.364;2023-02-26T01:34:18;0.40;99.90
5041;DHT22;2539;52.568;13.364;2023-02-26T01:37:40;0.30;99.90
5041;DHT22;2539;52.568;13.364;2023-02-26T01:39:47;0.30;99.90
5041;DHT22;2539;52.568;13.364;2023-02-26T01:42:21;0.30;99.90
5041;DHT22;2539;52.568;13.364;2023-02-26T01:45:01;0.20;99.90
5041;DHT22;2539;52.568;13.364;2023-02-26T01:47:48;0.30;99.90
5041;DHT22;2539;52.568;13.364;2023-02-26T01:50:22;0.30;99.90
5041;DHT22;2539;52.568;13.364;2023-02-26T01:55:22;0.40;99.90
5041;DHT22;2539;52.568;13.364;2023-02-26T01:57:50;-0.60;99.90
5041;DHT22;2539;52.568;13.364;2023-02-26T02:00:17;0.30;99.90
5041;DHT22;2539;52.568;13.364;2023-02-26T02:02:43;0.30;99.90
5041;DHT22;2539;52.568;13.364;2023-02-26T02:05:29;0.40;99.90
5041;DHT22;2539;52.568;13.364;2023-02-26T02:07:57;0.40;99.90
5041;DHT22;2539;52.568;13.364;2023-02-26T02:10:25;1.90;99.90
5041;DHT22;2539;52.568;13.364;2023-02-26T02:16:05;0.40;99.90
5041;DHT22;2539;52.568;13.364;2023-02-26T02:18:46;0.40;99.90
5041;DHT22;2539;52.568;13.364;2023-02-26T02:27:34;0.40;99.90
5041;DHT22;2539;52.568;13.364;2023-02-26T02:32:56;0.40;99.90
5041;DHT22;2539;52.568;13.364;2023-02-26T02:35:29;0.40;99.90
5041;DHT22;2539;52.568;13.364;2023-02-26T02:37:59;0.50;99.90
5041;DHT22;2539;52.568;13.364;2023-02-26T02:40:35;0.40;99.90
5041;DHT22;2539;52.568;13.364;2023-02-26T02:43:08;0.40;99.90
5041;DHT22;2539;52.568;13.364;2023-02-26T02:45:46;0.40;99.90
5041;DHT22;2539;52.568;13.364;2023-02-26T02:50:47;0.40;99.90
5041;DHT22;2539;52.568;13.364;2023-02-26T02:53:22;0.30;99.90
5041;DHT22;2539;52.568;13.364;2023-02-26T02:55:58;0.30;99.90
5041;DHT22;2539;52.568;13.364;2023-02-26T02:58:29;0.30;99.90
5041;DHT22;2539;52.568;13.364;2023-02-26T03:00:59;0.30;99.90
5041;DHT22;2539;52.568;13.364;2023-02-26T03:03:38;0.20;99.90
5041;DHT22;2539;52.568;13.364;2023-02-26T03:06:07;0.20;99.90
5041;DHT22;2539;52.568;13.364;2023-02-26T03:08:37;0.20;99.90
5041;DHT22;2539;52.568;13.364;2023-02-26T03:11:04;0.20;99.90
5041;DHT22;2539;52.568;13.364;2023-02-26T03:13:31;0.20;99.90
5041;DHT22;2539;52.568;13.364;2023-02-26T03:19:14;0.30;99.90
5041;DHT22;2539;52.568;13.364;2023-02-26T03:24:31;0.30;99.90
5041;DHT22;2539;52.568;13.364;2023-02-26T03:27:25;0.20;99.90
5041;DHT22;2539;52.568;13.364;2023-02-26T03:29:57;0.30;99.90
5041;DHT22;2539;52.568;13.364;2023-02-26T03:32:30;0.20;99.90
5041;DHT22;2539;52.568;13.364;2023-02-26T03:35:11;0.20;99.90
5041;DHT22;2539;52.568;13.364;2023-02-26T03:37:48;0.30;99.90
5041;DHT22;2539;52.568;13.364;2023-02-26T03:40:23;0.30;99.90
5041;DHT22;2539;52.568;13.364;2023-02-26T03:43:07;0.30;99.90
5041;DHT22;2539;52.568;13.364;2023-02-26T03:45:37;0.30;99.90
5041;DHT22;2539;52.568;13.364;2023-02-26T03:48:07;0.30;99.90
5041;DHT22;2539;52.568;13.364;2023-02-26T03:50:49;0.20;99.90
5041;DHT22;2539;52.568;13.364;2023-02-26T03:53:24;0.40;99.90
5041;DHT22;2539;52.568;13.364;2023-02-26T03:55:57;0.30;99.90
5041;DHT22;2539;52.568;13.364;2023-02-26T03:58:25;0.30;99.90
5041;DHT22;2539;52.568;13.364;2023-02-26T04:00:58;0.30;99.90
5041;DHT22;2539;52.568;13.364;2023-02-26T04:03:33;0.40;99.90
5041;DHT22;2539;52.568;13.364;2023-02-26T04:06:01;0.30;99.90
5041;DHT22;2539;52.568;13.364;2023-02-26T04:08:29;0.40;99.90
5041;DHT22;2539;52.568;13.364;2023-02-26T04:10:57;0.30;99.90
5041;DHT22;2539;52.568;13.364;2023-02-26T04:13:24;0.40;99.90
5041;DHT22;2539;52.568;13.364;2023-02-26T04:15:51;0.40;99.90
5041;DHT22;2539;52.568;13.364;2023-02-26T04:18:17;0.30;99.90
5041;DHT22;2539;52.568;13.364;2023-02-26T04:20:44;0.40;99.90
5041;DHT22;2539;52.568;13.364;2023-02-26T04:23:10;0.40;99.90
5041;DHT22;2539;52.568;13.364;2023-02-26T04:25:36;0.50;99.90
5041;DHT22;2539;52.568;13.364;2023-02-26T04:28:02;0.40;99.90
5041;DHT22;2539;52.568;13.364;2023-02-26T04:30:29;0.40;99.90
5041;DHT22;2539;52.568;13.364;2023-02-26T04:32:55;0.40;99.90
5041;DHT22;2539;52.568;13.364;2023-02-26T04:35:21;0.40;99.90
5041;DHT22;2539;52.568;13.364;2023-02-26T04:37:48;0.40;99.90
5041;DHT22;2539;52.568;13.364;2023-02-26T04:40:14;0.40;99.90
5041;DHT22;2539;52.568;13.364;2023-02-26T04:42:41;0.40;99.90
5041;DHT22;2539;52.568;13.364;2023-02-26T04:45:07;0.40;99.90
5041;DHT22;2539;52.568;13.364;2023-02-26T04:47:34;0.50;99.90
5041;DHT22;2539;52.568;13.364;2023-02-26T04:50:00;0.50;99.90
5041;DHT22;2539;52.568;13.364;2023-02-26T04:52:27;0.50;99.90
5041;DHT22;2539;52.568;13.364;2023-02-26T04:54:53;0.50;99.90
5041;DHT22;2539;52.568;13.364;2023-02-26T04:57:20;0.50;99.90
5041;DHT22;2539;52.568;13.364;2023-02-26T04:59:46;0.50;99.90
5041;DHT22;2539;52.568;13.364;2023-02-26T05:02:12;0.50;99.90
5041;DHT22;2539;52.568;13.364;2023-02-26T05:04:38;0.50;99.90
5041;DHT22;2539;52.568;13.364;2023-02-26T05:07:04;0.50;99.90
5041;DHT22;2539;52.568;13.364;2023-02-26T05:09:30;0.50;99.90
5041;DHT22;2539;52.568;13.364;2023-02-26T05:11:55;0.50;99.90
5041;DHT22;2539;52.568;13.364;2023-02-26T05:14:21;0.50;99.90
5041;DHT22;2539;52.568;13.364;2023-02-26T05:16:47;0.50;99.90
5041;DHT22;2539;52.568;13.364;2023-02-26T05:19:14;0.60;99.90
5041;DHT22;2539;52.568;13.364;2023-02-26T05:21:40;0.50;99.90
5041;DHT22;2539;52.568;13.364;2023-02-26T05:24:07;0.50;99.90
5041;DHT22;2539;52.568;13.364;2023-02-26T05:26:33;0.60;99.90
5041;DHT22;2539;52.568;13.364;2023-02-26T05:29:00;0.60;99.90
5041;DHT22;2539;52.568;13.364;2023-02-26T05:31:26;0.50;99.90
5041;DHT22;2539;52.568;13.364;2023-02-26T05:33:52;0.60;99.90
5041;DHT22;2539;52.568;13.364;2023-02-26T05:36:18;0.60;99.90
5041;DHT22;2539;52.568;13.364;2023-02-26T05:38:45;0.60;99.90
5041;DHT22;2539;52.568;13.364;2023-02-26T05:41:11;0.60;99.90
5041;DHT22;2539;52.568;13.364;2023-02-26T05:43:37;0.60;99.90
5041;DHT22;2539;52.568;13.364;2023-02-26T05:46:04;0.60;99.90
5041;DHT22;2539;52.568;13.364;2023-02-26T05:48:31;0.60;99.90
5041;DHT22;2539;52.568;13.364;2023-02-26T05:50:57;0.60;99.90
5041;DHT22;2539;52.568;13.364;2023-02-26T05:53:23;0.60;99.90
5041;DHT22;2539;52.568;13.364;2023-02-26T05:55:52;0.60;99.90
5041;DHT22;2539;52.568;13.364;2023-02-26T05:58:19;0.60;99.90
5041;DHT22;2539;52.568;13.364;2023-02-26T06:00:45;0.60;99.90
5041;DHT22;2539;52.568;13.364;2023-02-26T06:03:11;0.60;99.90
5041;DHT22;2539;52.568;13.364;2023-02-26T06:05:38;1.40;99.90
5041;DHT22;2539;52.568;13.364;2023-02-26T06:08:04;0.60;99.90
5041;DHT22;2539;52.568;13.364;2023-02-26T06:10:31;0.60;99.90
5041;DHT22;2539;52.568;13.364;2023-02-26T06:12:59;0.60;99.90
5041;DHT22;2539;52.568;13.364;2023-02-26T06:15:25;0.60;99.90
5041;DHT22;2539;52.568;13.364;2023-02-26T06:17:52;0.60;99.90
5041;DHT22;2539;52.568;13.364;2023-02-26T06:20:18;0.70;99.90
5041;DHT22;2539;52.568;13.364;2023-02-26T06:22:44;0.70;99.90
5041;DHT22;2539;52.568;13.364;2023-02-26T06:25:11;0.80;99.90
5041;DHT22;2539;52.568;13.364;2023-02-26T06:27:37;0.70;99.90
5041;DHT22;2539;52.568;13.364;2023-02-26T06:30:04;0.70;99.90
5041;DHT22;2539;52.568;13.364;2023-02-26T06:32:30;0.70;99.90
5041;DHT22;2539;52.568;13.364;2023-02-26T06:34:57;0.70;99.90
5041;DHT22;2539;52.568;13.364;2023-02-26T06:37:23;0.80;99.90
5041;DHT22;2539;52.568;13.364;2023-02-26T06:39:50;0.70;99.90
5041;DHT22;2539;52.568;13.364;2023-02-26T06:42:16;0.90;99.90
5041;DHT22;2539;52.568;13.364;2023-02-26T06:44:43;0.80;99.90
5041;DHT22;2539;52.568;13.364;2023-02-26T06:47:09;0.80;99.90
5041;DHT22;2539;52.568;13.364;2023-02-26T06:49:35;0.90;99.90
5041;DHT22;2539;52.568;13.364;2023-02-26T06:52:02;0.90;99.90
5041;DHT22;2539;52.568;13.364;2023-02-26T06:54:28;0.90;99.90
5041;DHT22;2539;52.568;13.364;2023-02-26T06:56:54;0.90;99.90
5041;DHT22;2539;52.568;13.364;2023-02-26T06:59:23;1.00;99.90
5041;DHT22;2539;52.568;13.364;2023-02-26T07:01:49;1.00;99.90
5041;DHT22;2539;52.568;13.364;2023-02-26T07:04:15;1.00;99.90
5041;DHT22;2539;52.568;13.364;2023-02-26T07:06:40;0.90;99.90
5041;DHT22;2539;52.568;13.364;2023-02-26T07:09:06;0.70;99.90
5041;DHT22;2539;52.568;13.364;2023-02-26T07:11:33;0.70;99.90
5041;DHT22;2539;52.568;13.364;2023-02-26T07:14:00;0.60;99.90
5041;DHT22;2539;52.568;13.364;2023-02-26T07:16:26;0.60;99.90
5041;DHT22;2539;52.568;13.364;2023-02-26T07:18:53;0.60;99.90
5041;DHT22;2539;52.568;13.364;2023-02-26T07:21:19;0.60;99.90
5041;DHT22;2539;52.568;13.364;2023-02-26T07:23:45;0.60;99.90
5041;DHT22;2539;52.568;13.364;2023-02-26T07:26:12;0.90;99.90
5041;DHT22;2539;52.568;13.364;2023-02-26T07:28:38;1.00;99.90
5041;DHT22;2539;52.568;13.364;2023-02-26T07:31:04;1.00;99.90
5041;DHT22;2539;52.568;13.364;2023-02-26T07:33:30;1.00;99.90
5041;DHT22;2539;52.568;13.364;2023-02-26T07:35:57;1.00;99.90
5041;DHT22;2539;52.568;13.364;2023-02-26T07:38:23;1.00;99.90
5041;DHT22;2539;52.568;13.364;2023-02-26T07:40:50;1.10;99.90
5041;DHT22;2539;52.568;13.364;2023-02-26T07:43:16;1.30;99.90
5041;DHT22;2539;52.568;13.364;2023-02-26T07:45:42;1.10;99.90
5041;DHT22;2539;52.568;13.364;2023-02-26T07:48:09;1.20;99.90
5041;DHT22;2539;52.568;13.364;2023-02-26T07:50:35;1.20;99.90
5041;DHT22;2539;52.568;13.364;2023-02-26T07:53:01;1.20;99.90
5041;DHT22;2539;52.568;13.364;2023-02-26T07:55:27;1.10;99.90
5041;DHT22;2539;52.568;13.364;2023-02-26T07:57:53;1.10;99.90
5041;DHT22;2539;52.568;13.364;2023-02-26T08:00:18;1.10;99.90
5041;DHT22;2539;52.568;13.364;2023-02-26T08:02:44;1.10;99.90
5041;DHT22;2539;52.568;13.364;2023-02-26T08:05:10;1.20;99.90
5041;DHT22;2539;52.568;13.364;2023-02-26T08:07:37;1.10;99.90
5041;DHT22;2539;52.568;13.364;2023-02-26T08:10:03;1.20;99.90
5041;DHT22;2539;52.568;13.364;2023-02-26T08:12:29;1.20;99.90
5041;DHT22;2539;52.568;13.364;2023-02-26T08:14:55;1.30;99.90
5041;DHT22;2539;52.568;13.364;2023-02-26T08:17:21;1.30;99.90
5041;DHT22;2539;52.568;13.364;2023-02-26T08:19:47;1.50;99.90
5041;DHT22;2539;52.568;13.364;2023-02-26T08:22:13;1.50;99.90
5041;DHT22;2539;52.568;13.364;2023-02-26T08:24:39;1.40;99.90
5041;DHT22;2539;52.568;13.364;2023-02-26T08:27:06;1.50;99.90
5041;DHT22;2539;52.568;13.364;2023-02-26T08:29:32;1.60;99.90
5041;DHT22;2539;52.568;13.364;2023-02-26T08:31:58;1.60;99.90
5041;DHT22;2539;52.568;13.364;2023-02-26T08:34:25;1.60;99.90
5041;DHT22;2539;52.568;13.364;2023-02-26T08:36:51;1.60;99.90
5041;DHT22;2539;52.568;13.364;2023-02-26T08:39:17;1.70;99.90
5041;DHT22;2539;52.568;13.364;2023-02-26T08:41:44;1.50;99.90
5041;DHT22;2539;52.568;13.364;2023-02-26T08:44:10;1.70;99.90
5041;DHT22;2539;52.568;13.364;2023-02-26T08:46:36;1.60;99.90
5041;DHT22;2539;52.568;13.364;2023-02-26T08:49:03;1.80;99.90
5041;DHT22;2539;52.568;13.364;2023-02-26T08:51:29;2.00;99.90
5041;DHT22;2539;52.568;13.364;2023-02-26T08:53:55;1.90;99.90
5041;DHT22;2539;52.568;13.364;2023-02-26T08:56:22;2.00;99.90
5041;DHT22;2539;52.568;13.364;2023-02-26T08:58:48;2.00;99.90
5041;DHT22;2539;52.568;13.364;2023-02-26T09:01:14;2.00;99.90
5041;DHT22;2539;52.568;13.364;2023-02-26T09:03:40;2.00;99.90
5041;DHT22;2539;52.568;13.364;2023-02-26T09:06:06;2.00;99.90
5041;DHT22;2539;52.568;13.364;2023-02-26T09:08:32;2.10;99.90
5041;DHT22;2539;52.568;13.364;2023-02-26T09:11:01;2.20;99.90
5041;DHT22;2539;52.568;13.364;2023-02-26T09:13:28;2.20;99.90
5041;DHT22;2539;52.568;13.364;2023-02-26T09:15:55;2.30;99.90
5041;DHT22;2539;52.568;13.364;2023-02-26T09:18:21;2.30;99.90
5041;DHT22;2539;52.568;13.364;2023-02-26T09:20:48;2.30;99.90
5041;DHT22;2539;52.568;13.364;2023-02-26T09:23:14;2.40;99.90
5041;DHT22;2539;52.568;13.364;2023-02-26T09:25:41;2.40;99.90
5041;DHT22;2539;52.568;13.364;2023-02-26T09:28:07;2.50;99.90
5041;DHT22;2539;52.568;13.364;2023-02-26T09:30:33;2.30;99.90
5041;DHT22;2539;52.568;13.364;2023-02-26T09:33:00;2.30;99.90
5041;DHT22;2539;52.568;13.364;2023-02-26T09:35:26;2.30;99.90
5041;DHT22;2539;52.568;13.364;2023-02-26T09:37:53;2.30;99.90
5041;DHT22;2539;52.568;13.364;2023-02-26T09:43:41;2.40;99.90
5041;DHT22;2539;52.568;13.364;2023-02-26T09:48:48;2.60;99.90
5041;DHT22;2539;52.568;13.364;2023-02-26T09:51:20;2.80;99.90
5041;DHT22;2539;52.568;13.364;2023-02-26T09:53:48;3.00;99.90
5041;DHT22;2539;52.568;13.364;2023-02-26T09:56:21;3.10;99.90
5041;DHT22;2539;52.568;13.364;2023-02-26T09:58:49;3.10;99.90
5041;DHT22;2539;52.568;13.364;2023-02-26T10:01:32;3.70;99.90
5041;DHT22;2539;52.568;13.364;2023-02-26T10:07:25;3.70;99.90
5041;DHT22;2539;52.568;13.364;2023-02-26T10:12:33;3.10;99.90
5041;DHT22;2539;52.568;13.364;2023-02-26T10:17:53;2.70;99.90
5041;DHT22;2539;52.568;13.364;2023-02-26T10:20:26;2.80;99.90
5041;DHT22;2539;52.568;13.364;2023-02-26T10:23:15;2.70;99.90
5041;DHT22;2539;52.568;13.364;2023-02-26T10:25:53;2.80;99.90
5041;DHT22;2539;52.568;13.364;2023-02-26T10:28:49;3.30;99.90
5041;DHT22;2539;52.568;13.364;2023-02-26T10:31:34;3.50;99.90
5041;DHT22;2539;52.568;13.364;2023-02-26T10:37:06;3.10;99.90
5041;DHT22;2539;52.568;13.364;2023-02-26T10:39:47;3.30;99.90
5041;DHT22;2539;52.568;13.364;2023-02-26T10:42:20;3.50;99.90
5041;DHT22;2539;52.568;13.364;2023-02-26T10:45:23;3.50;99.90
5041;DHT22;2539;52.568;13.364;2023-02-26T10:47:50;3.50;99.90
5041;DHT22;2539;52.568;13.364;2023-02-26T10:50:20;3.80;99.90
5041;DHT22;2539;52.568;13.364;2023-02-26T10:52:48;3.50;99.90
5041;DHT22;2539;52.568;13.364;2023-02-26T10:55:42;3.20;99.90
5041;DHT22;2539;52.568;13.364;2023-02-26T10:58:16;3.10;99.90
5041;DHT22;2539;52.568;13.364;2023-02-26T11:00:46;3.20;99.90
5041;DHT22;2539;52.568;13.364;2023-02-26T11:03:43;3.10;99.90
5041;DHT22;2539;52.568;13.364;2023-02-26T11:06:16;2.90;99.90
5041;DHT22;2539;52.568;13.364;2023-02-26T11:08:53;2.80;99.90
5041;DHT22;2539;52.568;13.364;2023-02-26T11:12:05;2.80;99.90
5041;DHT22;2539;52.568;13.364;2023-02-26T11:14:32;3.10;99.90
5041;DHT22;2539;52.568;13.364;2023-02-26T11:17:15;3.30;99.90
5041;DHT22;2539;52.568;13.364;2023-02-26T11:19:55;3.00;99.90
5041;DHT22;2539;52.568;13.364;2023-02-26T11:22:25;2.80;99.90
5041;DHT22;2539;52.568;13.364;2023-02-26T11:24:53;2.70;99.90
5041;DHT22;2539;52.568;13.364;2023-02-26T11:27:31;2.80;99.90
5041;DHT22;2539;52.568;13.364;2023-02-26T11:30:05;3.10;99.90
5041;DHT22;2539;52.568;13.364;2023-02-26T11:32:35;3.20;99.90
5041;DHT22;2539;52.568;13.364;2023-02-26T11:35:06;3.10;99.90
5041;DHT22;2539;52.568;13.364;2023-02-26T11:37:37;2.80;99.90
5041;DHT22;2539;52.568;13.364;2023-02-26T11:40:21;2.70;99.90
5041;DHT22;2539;52.568;13.364;2023-02-26T11:43:11;3.10;99.90
5041;DHT22;2539;52.568;13.364;2023-02-26T11:45:44;3.60;99.90
5041;DHT22;2539;52.568;13.364;2023-02-26T11:48:23;4.10;99.90
5041;DHT22;2539;52.568;13.364;2023-02-26T11:50:54;4.20;99.90
5041;DHT22;2539;52.568;13.364;2023-02-26T11:53:36;3.90;99.90
5041;DHT22;2539;52.568;13.364;2023-02-26T11:56:12;3.60;99.90
5041;DHT22;2539;52.568;13.364;2023-02-26T11:58:40;3.30;99.90
5041;DHT22;2539;52.568;13.364;2023-02-26T12:01:10;3.10;99.90
5041;DHT22;2539;52.568;13.364;2023-02-26T12:03:38;3.30;99.90
5041;DHT22;2539;52.568;13.364;2023-02-26T12:06:09;3.30;99.90
5041;DHT22;2539;52.568;13.364;2023-02-26T12:08:39;3.50;99.90
5041;DHT22;2539;52.568;13.364;2023-02-26T12:17:12;4.20;99.90
5041;DHT22;2539;52.568;13.364;2023-02-26T12:31:56;3.60;99.90
5041;DHT22;2539;52.568;13.364;2023-02-26T12:34:54;3.40;99.90
5041;DHT22;2539;52.568;13.364;2023-02-26T12:54:20;3.60;99.90
5041;DHT22;2539;52.568;13.364;2023-02-26T12:57:13;3.90;99.90
5041;DHT22;2539;52.568;13.364;2023-02-26T13:00:19;3.40;99.90
5041;DHT22;2539;52.568;13.364;2023-02-26T13:14:48;2.60;99.90
5041;DHT22;2539;52.568;13.364;2023-02-26T13:17:43;2.60;99.90
5041;DHT22;2539;52.568;13.364;2023-02-26T13:20:23;2.80;99.90
5041;DHT22;2539;52.568;13.364;2023-02-26T13:28:00;3.50;99.90
5041;DHT22;2539;52.568;13.364;2023-02-26T13:30:35;3.80;99.90
5041;DHT22;2539;52.568;13.364;2023-02-26T13:33:03;4.00;99.90
5041;DHT22;2539;52.568;13.364;2023-02-26T13:35:35;3.90;99.90
5041;DHT22;2539;52.568;13.364;2023-02-26T13:40:54;3.60;99.90
5041;DHT22;2539;52.568;13.364;2023-02-26T13:47:01;4.10;99.90
5041;DHT22;2539;52.568;13.364;2023-02-26T13:50:12;4.20;99.90
5041;DHT22;2539;52.568;13.364;2023-02-26T13:52:53;4.20;99.90
5041;DHT22;2539;52.568;13.364;2023-02-26T13:55:41;4.00;99.90
5041;DHT22;2539;52.568;13.364;2023-02-26T13:58:17;3.80;99.90
5041;DHT22;2539;52.568;13.364;2023-02-26T14:00:57;3.70;99.90
5041;DHT22;2539;52.568;13.364;2023-02-26T14:05:53;3.50;99.90
5041;DHT22;2539;52.568;13.364;2023-02-26T14:08:44;3.40;99.90
5041;DHT22;2539;52.568;13.364;2023-02-26T14:14:09;3.50;99.90
5041;DHT22;2539;52.568;13.364;2023-02-26T14:16:39;3.80;99.90
5041;DHT22;2539;52.568;13.364;2023-02-26T14:22:12;4.10;99.90
5041;DHT22;2539;52.568;13.364;2023-02-26T14:24:45;4.10;99.90
5041;DHT22;2539;52.568;13.364;2023-02-26T14:30:03;3.80;99.90
5041;DHT22;2539;52.568;13.364;2023-02-26T14:35:09;3.70;99.90
5041;DHT22;2539;52.568;13.364;2023-02-26T14:37:37;3.60;99.90
5041;DHT22;2539;52.568;13.364;2023-02-26T14:40:14;3.50;99.90
5041;DHT22;2539;52.568;13.364;2023-02-26T14:42:49;3.30;99.90
5041;DHT22;2539;52.568;13.364;2023-02-26T14:45:38;3.10;99.90
5041;DHT22;2539;52.568;13.364;2023-02-26T14:48:06;3.00;99.90
5041;DHT22;2539;52.568;13.364;2023-02-26T14:56:09;2.90;99.90
5041;DHT22;2539;52.568;13.364;2023-02-26T15:08:18;3.50;99.90
5041;DHT22;2539;52.568;13.364;2023-02-26T15:11:08;3.70;99.90
5041;DHT22;2539;52.568;13.364;2023-02-26T15:14:16;3.90;99.90
5041;DHT22;2539;52.568;13.364;2023-02-26T15:17:02;4.00;99.90
5041;DHT22;2539;52.568;13.364;2023-02-26T15:19:48;4.00;99.90
5041;DHT22;2539;52.568;13.364;2023-02-26T15:22:24;3.90;99.90
5041;DHT22;2539;52.568;13.364;2023-02-26T15:24:53;4.00;99.90
5041;DHT22;2539;52.568;13.364;2023-02-26T15:27:20;3.90;99.90
5041;DHT22;2539;52.568;13.364;2023-02-26T15:29:48;3.80;99.90
5041;DHT22;2539;52.568;13.364;2023-02-26T15:32:28;3.90;99.90
5041;DHT22;2539;52.568;13.364;2023-02-26T15:34:59;3.90;99.90
5041;DHT22;2539;52.568;13.364;2023-02-26T15:37:27;3.80;99.90
5041;DHT22;2539;52.568;13.364;2023-02-26T15:39:55;3.80;99.90
5041;DHT22;2539;52.568;13.364;2023-02-26T15:42:29;3.60;99.90
5041;DHT22;2539;52.568;13.364;2023-02-26T15:45:00;3.50;99.90
5041;DHT22;2539;52.568;13.364;2023-02-26T15:47:28;3.40;99.90
5041;DHT22;2539;52.568;13.364;2023-02-26T15:49:55;3.30;99.90
5041;DHT22;2539;52.568;13.364;2023-02-26T15:52:25;3.30;99.90
5041;DHT22;2539;52.568;13.364;2023-02-26T15:54:55;3.20;99.90
5041;DHT22;2539;52.568;13.364;2023-02-26T15:57:23;3.20;99.90
5041;DHT22;2539;52.568;13.364;2023-02-26T15:59:53;3.10;99.90
5041;DHT22;2539;52.568;13.364;2023-02-26T16:02:25;3.00;99.90
5041;DHT22;2539;52.568;13.364;2023-02-26T16:04:51;2.90;99.90
5041;DHT22;2539;52.568;13.364;2023-02-26T16:07:18;2.90;99.90
5041;DHT22;2539;52.568;13.364;2023-02-26T16:09:47;2.70;99.90
5041;DHT22;2539;52.568;13.364;2023-02-26T16:14:58;2.60;99.90
5041;DHT22;2539;52.568;13.364;2023-02-26T16:17:30;2.60;99.90
5041;DHT22;2539;52.568;13.364;2023-02-26T16:20:01;2.60;99.90
5041;DHT22;2539;52.568;13.364;2023-02-26T16:22:32;2.60;99.90
5041;DHT22;2539;52.568;13.364;2023-02-26T16:25:05;2.50;99.90
5041;DHT22;2539;52.568;13.364;2023-02-26T16:27:33;2.40;99.90
5041;DHT22;2539;52.568;13.364;2023-02-26T16:30:02;2.40;99.90
5041;DHT22;2539;52.568;13.364;2023-02-26T16:32:31;2.40;99.90
5041;DHT22;2539;52.568;13.364;2023-02-26T16:35:01;2.30;99.90
5041;DHT22;2539;52.568;13.364;2023-02-26T16:37:34;2.30;99.90
5041;DHT22;2539;52.568;13.364;2023-02-26T16:40:26;2.20;99.90
5041;DHT22;2539;52.568;13.364;2023-02-26T16:43:31;2.10;99.90
5041;DHT22;2539;52.568;13.364;2023-02-26T16:46:01;2.00;99.90
5041;DHT22;2539;52.568;13.364;2023-02-26T16:48:31;2.00;99.90
5041;DHT22;2539;52.568;13.364;2023-02-26T16:51:10;2.00;99.90
5041;DHT22;2539;52.568;13.364;2023-02-26T16:56:17;1.80;99.90
5041;DHT22;2539;52.568;13.364;2023-02-26T16:58:47;1.70;99.90
5041;DHT22;2539;52.568;13.364;2023-02-26T17:01:16;1.80;99.90
5041;DHT22;2539;52.568;13.364;2023-02-26T17:03:50;1.80;99.90
5041;DHT22;2539;52.568;13.364;2023-02-26T17:06:21;1.90;99.90
5041;DHT22;2539;52.568;13.364;2023-02-26T17:08:55;1.70;99.90
5041;DHT22;2539;52.568;13.364;2023-02-26T17:11:31;1.70;99.90
5041;DHT22;2539;52.568;13.364;2023-02-26T17:14:20;1.80;99.90
5041;DHT22;2539;52.568;13.364;2023-02-26T17:16:49;1.90;99.90
5041;DHT22;2539;52.568;13.364;2023-02-26T17:19:17;1.90;99.90
5041;DHT22;2539;52.568;13.364;2023-02-26T17:21:47;1.90;99.90
5041;DHT22;2539;52.568;13.364;2023-02-26T17:24:17;1.90;99.90
5041;DHT22;2539;52.568;13.364;2023-02-26T17:26:46;2.00;99.90
5041;DHT22;2539;52.568;13.364;2023-02-26T17:29:21;2.00;99.90
5041;DHT22;2539;52.568;13.364;2023-02-26T17:31:49;1.90;99.90
5041;DHT22;2539;52.568;13.364;2023-02-26T17:34:18;2.00;99.90
5041;DHT22;2539;52.568;13.364;2023-02-26T17:36:44;2.00;99.90
5041;DHT22;2539;52.568;13.364;2023-02-26T17:39:12;1.90;99.90
5041;DHT22;2539;52.568;13.364;2023-02-26T17:41:42;1.90;99.90
5041;DHT22;2539;52.568;13.364;2023-02-26T17:44:08;1.90;99.90
5041;DHT22;2539;52.568;13.364;2023-02-26T17:46:35;1.80;99.90
5041;DHT22;2539;52.568;13.364;2023-02-26T17:49:01;1.70;99.90
5041;DHT22;2539;52.568;13.364;2023-02-26T17:51:28;1.50;99.90
5041;DHT22;2539;52.568;13.364;2023-02-26T17:53:54;1.50;99.90
5041;DHT22;2539;52.568;13.364;2023-02-26T17:56:26;1.40;99.90
5041;DHT22;2539;52.568;13.364;2023-02-26T17:58:54;1.40;99.90
5041;DHT22;2539;52.568;13.364;2023-02-26T18:01:21;1.30;99.90
5041;DHT22;2539;52.568;13.364;2023-02-26T18:03:55;1.30;99.90
5041;DHT22;2539;52.568;13.364;2023-02-26T18:06:23;1.20;99.90
5041;DHT22;2539;52.568;13.364;2023-02-26T18:08:49;1.20;99.90
5041;DHT22;2539;52.568;13.364;2023-02-26T18:11:16;1.10;99.90
5041;DHT22;2539;52.568;13.364;2023-02-26T18:13:44;1.10;99.90
5041;DHT22;2539;52.568;13.364;2023-02-26T18:16:18;1.00;99.90
5041;DHT22;2539;52.568;13.364;2023-02-26T18:18:45;0.90;99.90
5041;DHT22;2539;52.568;13.364;2023-02-26T18:21:11;0.90;99.90
5041;DHT22;2539;52.568;13.364;2023-02-26T18:23:40;0.90;99.90
5041;DHT22;2539;52.568;13.364;2023-02-26T18:26:06;0.90;99.90
5041;DHT22;2539;52.568;13.364;2023-02-26T18:28:32;0.90;99.90
5041;DHT22;2539;52.568;13.364;2023-02-26T18:30:59;0.80;99.90
5041;DHT22;2539;52.568;13.364;2023-02-26T18:33:25;0.80;99.90
5041;DHT22;2539;52.568;13.364;2023-02-26T18:35:54;0.80;99.90
5041;DHT22;2539;52.568;13.364;2023-02-26T18:38:24;2.30;99.90
5041;DHT22;2539;52.568;13.364;2023-02-26T18:40:51;0.60;99.90
5041;DHT22;2539;52.568;13.364;2023-02-26T18:43:19;0.60;99.90
5041;DHT22;2539;52.568;13.364;2023-02-26T18:45:46;0.50;99.90